Tiempo atmosférico en la estación meteorológica de Montehermoso, Cáceres (351 m.)



Fecha
DESCASC
Temp. máxima en grados centígrados (hora)
DESCASC
Temp. mínima en grados centígrados (hora)
DESCASC
Temp. media en grados centígrados
DESCASC
Racha de viento máxima en m/sg (hora)
DESCASC
Velocidad máxima media en intervalos de 10 minutos(hora)
DESCASC
Precipitaciones diarias en mm
DESCASC
Precipitaciones de 00:00 a 06:00 en mm
DESCASC
Precipitaciones de 06:00 a 12:00 en mm
DESCASC
Precipitaciones de 12:00 a 18:00 en mm
DESCASC
Precipitaciones de 18:00 a 24:00 en mm
DESCASC
15-08-2019 37.7 (18:50) 20.8 (08:10) 29.3 8.61 (18:10) 5.56 (23:40) 0 0 0 0 0
14-08-2019 34.7 (17:30) 14.8 (00:00) 24.8 8.33 (16:50) 5 (16:50) 0 0 0 0 0
13-08-2019 32 (17:30) 16.5 (00:00) 24.3 6.67 (15:00) 4.17 (21:10) 0 0 0 0 0
12-08-2019 30.1 (18:20) 15.6 (00:00) 22.9 11.11 (10:30) 6.11 (00:10) 0 0 0 0 0
11-08-2019 27.8 (17:10) 15.5 (00:00) 21.6 10.56 (15:20) 6.11 (23:40) 0 0 0 0 0
10-08-2019 30.1 (17:40) 14.1 (00:00) 22.1 8.06 (14:20) 4.17 (15:10) 0 0 0 0 0
09-08-2019 25.3 (00:00) 17.3 (00:00) 21.3 9.17 (16:20) 5.56 (16:20) 8 0 3 5 0
08-08-2019 32.9 (16:30) 18.5 (00:00) 25.7 9.72 (20:00) 5.56 (20:00) 0 0 0 0 0
07-08-2019 26.9 (18:50) 20.9 (00:00) 23.9 5.83 (19:00) 3.89 (01:50) 0.2 0 0 0.2 0
06-08-2019 34.6 (17:50) 17.2 (00:00) 25.9 9.17 (22:30) 5 (22:30) 0 0 0 0 0
05-08-2019 35.6 (17:50) 15.3 (00:00) 25.4 7.5 (17:30) 4.44 (18:00) 0 0 0 0 0
04-08-2019 35.8 (17:30) 19.2 (00:00) 27.5 8.61 (16:30) 5 (20:00) 0 0 0 0 0
03-08-2019 36.1 (17:50) 16.6 (00:00) 26.3 7.78 (16:30) 4.17 (14:10) 0 0 0 0 0
02-08-2019 36.2 (19:00) 16.2 (00:00) 26.2 7.22 (13:40) 3.61 (13:30) 0 0 0 0 0
01-08-2019 35 (18:10) 15.9 (00:00) 25.4 9.17 (18:00) 5 (16:10) 0 0 0 0 0
31-07-2019 35.2 (17:40) 18.8 (00:00) 27 8.89 (02:00) 4.17 (12:10) 0 0 0 0 0
30-07-2019 32.1 (18:40) 15.6 (00:00) 23.8 12.5 (10:50) 6.39 (11:00) 0 0 0 0 0
29-07-2019 30.8 (18:20) 14.7 (00:00) 22.7 11.11 (23:00) 7.5 (22:30) 0 0 0 0 0
28-07-2019 32.4 (18:20) 18.8 (00:00) 25.6 7.5 (16:10) 5 (16:20) 0 0 0 0 0
27-07-2019 28.9 (19:30) 16.4 (00:00) 22.6 9.44 (17:20) 5.56 (17:20) 0 0 0 0 0
26-07-2019 29.9 (17:40) 19.5 (00:00) 24.7 10 (15:00) 5.28 (15:00) 0 0 0 0 0
25-07-2019 34.1 (18:50) 18.6 (00:00) 26.3 9.17 (18:40) 5.28 (21:10) 0 0 0 0 0
24-07-2019 37.9 (18:00) 21 (00:00) 29.5 8.61 (18:20) 4.72 (21:30) 0 0 0 0 0
23-07-2019 38.2 (17:00) 23.5 (00:00) 30.9 10 (12:40) 6.11 (12:40) 0.2 0.2 0 0 0
22-07-2019 40.7 (19:30) 24 (00:00) 32.4 14.17 (20:50) 8.06 (21:00) 0.4 0 0 0 0.4
21-07-2019 39.4 (18:10) 19.6 (00:00) 29.5 6.67 (15:00) 3.61 (18:10) 0 0 0 0 0
20-07-2019 37.9 (17:50) 21 (00:00) 29.5 7.78 (17:30) 4.17 (16:30) 0 0 0 0 0
19-07-2019 38.6 (17:20) 20.1 (00:00) 29.3 8.33 (18:40) 5.28 (23:10) 0 0 0 0 0

Gráficas

Temp. máximas Temp. mínimas Temp. medias Precipitaciones Rachas de viento máximas Velocidades máximas media en intervalos de 10 minutos

Datos horarios

Fecha y hora oficial Temperatura (ºC) Velocidad del viento (km/h) Dirección del viento Racha (km/h) Dirección de racha Precipitación (mm) Presión (hPa) Tendencia (hPa) Humedad (%)
2019-08-17 23:00:00 28.8 9 Oeste 17 Oeste 0 -- -- 30
2019-08-17 22:00:00 28.9 2 Noroeste 8 Noroeste 0 -- -- 33
2019-08-17 21:00:00 34.5 0 Calma 12 Sur 0 -- -- 26
2019-08-17 20:00:00 36.3 10 Sudeste 19 Sudeste 0 -- -- 24
2019-08-17 19:00:00 36.7 15 Sudeste 21 Sur 0 -- -- 24
2019-08-17 18:00:00 37 10 Sudoeste 28 Sur 0 -- -- 21
2019-08-17 17:00:00 36.5 15 Sudeste 26 Sur 0 -- -- 24
2019-08-17 16:00:00 35.7 13 Sur 26 Sur 0 -- -- 26
2019-08-17 15:00:00 34.9 9 Sur 21 Sur 0 -- -- 27
2019-08-17 14:00:00 33.3 10 Sur 19 Sudeste 0 -- -- 29
2019-08-17 13:00:00 31.7 9 Sudeste 16 Sudeste 0 -- -- 32
2019-08-17 12:00:00 29.2 8 Sudeste 13 Sudeste 0 -- -- 40
2019-08-17 11:00:00 26.7 9 Sudeste 13 Sudeste 0 -- -- 48
2019-08-17 10:00:00 24.9 4 Sudeste 6 Sudeste 0 -- -- 46
2019-08-17 09:00:00 20.9 0 Calma 4 Norte 0 -- -- 56
2019-08-17 08:00:00 18.5 0 Calma 7 Oeste 0 -- -- 62
2019-08-17 07:00:00 19.7 5 Noroeste 8 Noroeste 0 -- -- 57
2019-08-17 06:00:00 20.1 4 Noroeste 6 Noroeste 0 -- -- 55
2019-08-17 05:00:00 20.6 5 Noroeste 6 Noroeste 0 -- -- 53
2019-08-17 04:00:00 21.5 4 Noroeste 6 Noroeste 0 -- -- 53
2019-08-17 03:00:00 22.8 3 Noroeste 8 Oeste 0 -- -- 49
2019-08-17 02:00:00 24.4 5 Noroeste 8 Norte 0 -- -- 45
2019-08-17 01:00:00 26.6 7 Norte 14 Noroeste 0 -- -- 42
2019-08-17 00:00:00 28 5 Sudeste 25 Norte 0 -- -- 43
2019-08-16 23:00:00 30.4 14 Noroeste 25 Noroeste 0 -- -- 39
2019-08-16 22:00:00 31.7 10 Norte 14 Norte 0 -- -- 29
2019-08-16 21:00:00 34.8 5 Sudoeste 17 Sur 0 -- -- 28
2019-08-16 20:00:00 36.3 12 Sur 23 Sur 0 -- -- 26
2019-08-16 19:00:00 37.5 8 Oeste 28 Oeste 0 -- -- 25
2019-08-16 18:00:00 37.3 10 Sudeste 27 Sudeste 0 -- -- 27
2019-08-16 17:00:00 36.7 17 Sudeste 32 Sur 0 -- -- 26
2019-08-16 16:00:00 35.5 17 Sur 26 Sur 0 -- -- 28
2019-08-16 15:00:00 34.6 13 Sur 23 Sur 0 -- -- 32
2019-08-16 14:00:00 33.9 15 Sudeste 26 Sudeste 0 -- -- 34
2019-08-16 13:00:00 32.4 12 Sur 19 Sudeste 0 -- -- 39
2019-08-16 12:00:00 31.2 9 Sudeste 17 Sudeste 0 -- -- 40
2019-08-16 11:00:00 29.3 5 Sudeste 12 Sudeste 0 -- -- 44
2019-08-16 10:00:00 26.9 8 Nordeste 14 Nordeste 0 -- -- 48
2019-08-16 09:00:00 22.2 3 Este 6 Este 0 -- -- 61
2019-08-16 08:00:00 19.9 5 Noroeste 8 Oeste 0 -- -- 67
2019-08-16 07:00:00 20.3 3 Noroeste 6 Oeste 0 -- -- 65
2019-08-16 06:00:00 21.6 3 Noroeste 9 Noroeste 0 -- -- 61
2019-08-16 05:00:00 21.7 5 Noroeste 10 Oeste 0 -- -- 61
2019-08-16 04:00:00 23.2 2 Noroeste 7 Norte 0 -- -- 57
2019-08-16 03:00:00 24.9 3 Noroeste 12 Oeste 0 -- -- 52
2019-08-16 02:00:00 27.5 4 Norte 18 Norte 0 -- -- 46
2019-08-16 01:00:00 28.1 4 Norte 27 Norte 0 -- -- 44
2019-08-16 00:00:00 29.8 20 Norte 31 Norte 0 -- -- 40
2019-08-15 23:00:00 30.7 15 Norte 20 Norte 0 -- -- 32
2019-08-15 22:00:00 32 10 Norte 19 Noroeste 0 -- -- 29
2019-08-15 21:00:00 34.8 10 Noroeste 26 Noroeste 0 -- -- 24
2019-08-15 20:00:00 36.5 16 Noroeste 27 Oeste 0 -- -- 21
2019-08-15 19:00:00 37.5 11 Noroeste 31 Sur 0 -- -- 21
2019-08-15 18:00:00 37.4 15 Sur 26 Sudeste 0 -- -- 24
2019-08-15 17:00:00 36.6 15 Sur 28 Sudeste 0 -- -- 27
2019-08-15 16:00:00 36.1 15 Sur 24 Sur 0 -- -- 28
2019-08-15 15:00:00 35.9 10 Sudoeste 20 Sur 0 -- -- 29
2019-08-15 14:00:00 34.9 12 Sudeste 20 Sudeste 0 -- -- 31
2019-08-15 13:00:00 33.7 7 Este 22 Nordeste 0 -- -- 31
2019-08-15 12:00:00 32.1 10 Nordeste 23 Norte 0 -- -- 34
2019-08-15 11:00:00 29.6 10 Nordeste 25 Este 0 -- -- 37
2019-08-15 10:00:00 27.3 8 Nordeste 28 Norte 0 -- -- 45
2019-08-15 09:00:00 23.6 5 Nordeste 15 Norte 0 -- -- 57
2019-08-15 08:00:00 20.9 4 Noroeste 10 Oeste 0 -- -- 64
2019-08-15 07:00:00 22.6 0 Calma 10 Norte 0 -- -- 60
2019-08-15 06:00:00 24 7 Noroeste 13 Noroeste 0 -- -- 56
2019-08-15 05:00:00 23.3 6 Norte 10 Noroeste 0 -- -- 60
2019-08-15 04:00:00 24.8 8 Noroeste 14 Oeste 0 -- -- 57
2019-08-15 03:00:00 24.7 3 Noroeste 8 Norte 0 -- -- 57
2019-08-15 02:00:00 26.6 5 Norte 18 Norte 0 -- -- 52
2019-08-15 01:00:00 27.5 10 Norte 24 Noroeste 0 -- -- 49
2019-08-15 00:00:00 28.8 17 Norte 27 Noroeste 0 -- -- 45
2019-08-14 23:00:00 29.3 13 Noroeste 21 Norte 0 -- -- 38
2019-08-14 22:00:00 30.3 8 Norte 18 Norte 0 -- -- 33
2019-08-14 21:00:00 33.2 5 Norte 14 Sudeste 0 -- -- 28
2019-08-14 20:00:00 34.3 9 Sudeste 19 Sur 0 -- -- 27
2019-08-14 19:00:00 34.6 13 Sudeste 22 Sudeste 0 -- -- 28
2019-08-14 18:00:00 34.6 17 Sudeste 25 Sudeste 0 -- -- 26
2019-08-14 17:00:00 34.4 18 Sudeste 30 Sudeste 0 -- -- 24
2019-08-14 16:00:00 33.1 14 Sur 25 Sur 0 -- -- 24
2019-08-14 15:00:00 33 12 Sur 24 Sudeste 0 -- -- 24
2019-08-14 14:00:00 32 10 Sur 21 Sur 0 -- -- 25
2019-08-14 13:00:00 30.7 9 Sudeste 17 Sudeste 0 -- -- 27
2019-08-14 12:00:00 27.9 10 Sudeste 14 Sudeste 0 -- -- 33
2019-08-14 11:00:00 26.8 7 Sudeste 10 Nordeste 0 -- -- 36
2019-08-14 10:00:00 24 5 Nordeste 10 Nordeste 0 -- -- 32
2019-08-14 09:00:00 18.2 0 Calma 6 Noroeste 0 -- -- 46
2019-08-14 08:00:00 15.6 0 Calma 8 Noroeste 0 -- -- 53
2019-08-14 07:00:00 15.5 6 Noroeste 10 Oeste 0 -- -- 53
2019-08-14 06:00:00 15.4 3 Norte 6 Noroeste 0 -- -- 53
2019-08-14 05:00:00 16.9 5 Oeste 7 Norte 0 -- -- 45
2019-08-14 04:00:00 18.2 2 Noroeste 9 Sudeste 0 -- -- 44
2019-08-14 03:00:00 20.9 2 Sudoeste 15 Noroeste 0 -- -- 38
2019-08-14 02:00:00 24.1 10 Norte 18 Norte 0 -- -- 29
2019-08-14 01:00:00 24.9 10 Norte 21 Norte 0 -- -- 28
2019-08-14 00:00:00 25.1 10 Norte 19 Norte 0 -- -- 28
2019-08-13 23:00:00 26.5 11 Norte 18 Norte 0 -- -- 26
2019-08-13 22:00:00 27.2 12 Noroeste 22 Noroeste 0 -- -- 25
2019-08-13 21:00:00 30.1 14 Noroeste 23 Noroeste 0 -- -- 22
2019-08-13 20:00:00 31 9 Sur 18 Sur 0 -- -- 26
2019-08-13 19:00:00 31.9 12 Sudeste 23 Sudoeste 0 -- -- 24
2019-08-13 18:00:00 31.9 11 Sur 22 Sur 0 -- -- 23
2019-08-13 17:00:00 31.8 13 Sudeste 21 Sudeste 0 -- -- 24
2019-08-13 16:00:00 31 15 Sudeste 23 Sudeste 0 -- -- 25
2019-08-13 15:00:00 30.7 15 Sudeste 24 Sudeste 0 -- -- 24
2019-08-13 14:00:00 29 12 Sudeste 18 Sudeste 0 -- -- 29
2019-08-13 13:00:00 27.5 5 Sudeste 13 Sur 0 -- -- 30
2019-08-13 12:00:00 26 7 Norte 21 Este 0 -- -- 30
2019-08-13 11:00:00 24 9 Nordeste 21 Nordeste 0 -- -- 36
2019-08-13 10:00:00 21.3 8 Nordeste 17 Nordeste 0 -- -- 42
2019-08-13 09:00:00 18.2 8 Nordeste 18 Norte 0 -- -- 48
2019-08-13 08:00:00 16.5 4 Nordeste 13 Nordeste 0 -- -- 51
2019-08-13 07:00:00 17.7 5 Nordeste 15 Norte 0 -- -- 46
2019-08-13 06:00:00 18.4 8 Norte 17 Nordeste 0 -- -- 43
2019-08-13 05:00:00 18.8 6 Nordeste 18 Nordeste 0 -- -- 40
2019-08-13 04:00:00 20.3 8 Nordeste 22 Nordeste 0 -- -- 36
2019-08-13 03:00:00 21 12 Norte 22 Norte 0 -- -- 34
2019-08-13 02:00:00 21.4 11 Norte 23 Norte 0 -- -- 31
2019-08-13 01:00:00 22.3 10 Norte 21 Norte 0 -- -- 30
2019-08-13 00:00:00 23.1 12 Norte 25 Norte 0 -- -- 28
2019-08-12 23:00:00 24.1 13 Norte 21 Norte 0 -- -- 26
2019-08-12 22:00:00 24.5 9 Norte 22 Nordeste 0 -- -- 26
2019-08-12 21:00:00 25.4 9 Nordeste 26 Nordeste 0 -- -- 25
2019-08-12 20:00:00 26.6 13 Nordeste 25 Nordeste 0 -- -- 25
2019-08-12 19:00:00 29.5 14 Nordeste 23 Nordeste 0 -- -- 22
2019-08-12 18:00:00 29.9 10 Nordeste 21 Norte 0 -- -- 20
2019-08-12 17:00:00 29.5 10 Nordeste 27 Nordeste 0 -- -- 19
2019-08-12 16:00:00 29 10 Nordeste 29 Norte 0 -- -- 22
2019-08-12 15:00:00 27.9 14 Nordeste 31 Nordeste 0 -- -- 27
2019-08-12 14:00:00 25.9 13 Norte 34 Norte 0 -- -- 32
2019-08-12 13:00:00 24.1 15 Nordeste 33 Norte 0 -- -- 37
2019-08-12 12:00:00 22.4 17 Nordeste 39 Nordeste 0 -- -- 40
2019-08-12 11:00:00 20.6 19 Nordeste 40 Norte 0 -- -- 46
2019-08-12 10:00:00 19 17 Nordeste 37 Nordeste 0 -- -- 51
2019-08-12 09:00:00 17.2 10 Nordeste 29 Norte 0 -- -- 53
2019-08-12 08:00:00 15.8 11 Norte 26 Norte 0 -- -- 55
2019-08-12 07:00:00 15.8 11 Norte 18 Norte 0 -- -- 54
2019-08-12 06:00:00 16.1 11 Norte 21 Norte 0 -- -- 54
2019-08-12 05:00:00 16.6 10 Norte 19 Norte 0 -- -- 55
2019-08-12 04:00:00 16.5 10 Norte 17 Norte 0 -- -- 59
2019-08-12 03:00:00 17.3 7 Norte 18 Norte 0 -- -- 57
2019-08-12 02:00:00 17.5 7 Norte 15 Norte 0 -- -- 55
2019-08-12 01:00:00 18.7 12 Norte 36 Norte 0 -- -- 52
2019-08-12 00:00:00 19.9 21 Norte 37 Norte 0 -- -- 49
2019-08-11 23:00:00 21.3 19 Norte 34 Norte 0 -- -- 41
2019-08-11 22:00:00 22.3 12 Noroeste 27 Noroeste 0 -- -- 36
2019-08-11 21:00:00 24.3 16 Noroeste 32 Noroeste 0 -- -- 31
2019-08-11 20:00:00 26.1 17 Noroeste 33 Norte 0 -- -- 29
2019-08-11 19:00:00 27 17 Noroeste 35 Norte 0 -- -- 27
2019-08-11 18:00:00 27.7 15 Noroeste 31 Noroeste 0 -- -- 26
2019-08-11 17:00:00 27.5 13 Noroeste 30 Noroeste 0 -- -- 27
2019-08-11 16:00:00 26.2 16 Noroeste 38 Oeste 0 -- -- 30
2019-08-11 15:00:00 25.2 18 Noroeste 35 Noroeste 0 -- -- 33
2019-08-11 14:00:00 23.9 16 Noroeste 33 Norte 0 -- -- 38
2019-08-11 13:00:00 23.6 14 Noroeste 27 Noroeste 0 -- -- 46
2019-08-11 12:00:00 22.2 12 Noroeste 23 Noroeste 0 -- -- 53
2019-08-11 11:00:00 22.2 6 Sudeste 12 Sudeste 0 -- -- 56
2019-08-11 10:00:00 19.7 7 Sudeste 10 Sudeste 0 -- -- 67
2019-08-11 09:00:00 17.2 3 Sudeste 6 Sudeste 0 -- -- 74
2019-08-11 08:00:00 15.6 3 Nordeste 10 Noroeste 0 -- -- 78
2019-08-11 07:00:00 16.4 7 Noroeste 17 Noroeste 0 -- -- 73
2019-08-11 06:00:00 18.5 10 Noroeste 24 Oeste 0 -- -- 65
2019-08-11 05:00:00 20.4 14 Norte 25 Norte 0 -- -- 58
2019-08-11 04:00:00 21.4 10 Nordeste 22 Noroeste 0 -- -- 55
2019-08-11 03:00:00 21.8 10 Noroeste 19 Noroeste 0 -- -- 53
2019-08-11 02:00:00 22.7 6 Noroeste 15 Noroeste 0 -- -- 50
2019-08-11 01:00:00 23.3 10 Norte 30 Noroeste 0 -- -- 48
2019-08-11 00:00:00 24.1 14 Noroeste 24 Noroeste 0 -- -- 44
2019-08-10 23:00:00 25.2 13 Noroeste 23 Noroeste 0 -- -- 43
2019-08-10 22:00:00 26.3 5 Noroeste 16 Oeste 0 -- -- 38
2019-08-10 21:00:00 28.1 3 Sudoeste 12 Sur 0 -- -- 39
2019-08-10 20:00:00 28.8 9 Sur 16 Sudeste 0 -- -- 38
2019-08-10 19:00:00 29 10 Sur 17 Sudeste 0 -- -- 38
2019-08-10 18:00:00 29.9 11 Sudoeste 22 Sudoeste 0 -- -- 32
2019-08-10 17:00:00 29.3 8 Sudoeste 27 Sur 0 -- -- 33
2019-08-10 16:00:00 27.9 14 Sur 26 Sur 0 -- -- 37
2019-08-10 15:00:00 26.9 13 Sur 29 Sur 0 -- -- 46
2019-08-10 14:00:00 25.8 9 Sur 24 Sur 0 -- -- 50
2019-08-10 13:00:00 25.4 4 Nordeste 16 Este 0 -- -- 49
2019-08-10 12:00:00 23.8 6 Este 14 Sudeste 0 -- -- 56
2019-08-10 11:00:00 21 3 Sudoeste 6 Este 0 -- -- 66
2019-08-10 10:00:00 18.1 4 Sudeste 11 Sudeste 0 -- -- 82
2019-08-10 09:00:00 16.1 3 Norte 8 Nordeste 0 -- -- 88
2019-08-10 08:00:00 14.6 6 Oeste 9 Oeste 0 -- -- 92
2019-08-10 07:00:00 14.2 3 Noroeste 5 Oeste 0 -- -- 94
2019-08-10 06:00:00 14.5 0 Calma 9 Oeste 0 -- -- 94
2019-08-10 05:00:00 14.7 2 Noroeste 4 Noroeste 0 -- -- 95
2019-08-10 04:00:00 15.2 3 Noroeste 6 Norte 0 -- -- 94
2019-08-10 03:00:00 16.1 5 Norte 9 Noroeste 0 -- -- 91
2019-08-10 02:00:00 16.4 4 Noroeste 9 Oeste 0 -- -- 93
2019-08-10 01:00:00 17.1 2 Noroeste 8 Norte 0 -- -- 92
2019-08-10 00:00:00 17.3 3 Noroeste 4 Noroeste 0 -- -- 92
2019-08-09 23:00:00 17.8 3 Nordeste 5 Este 0 -- -- 92
2019-08-09 22:00:00 18.4 2 Este 5 Sudoeste 0 -- -- 90
2019-08-09 21:00:00 20.1 4 Sur 6 Sur 0 -- -- 81
2019-08-09 20:00:00 21.1 3 Sudeste 9 Sudeste 0 -- -- 78
2019-08-09 19:00:00 20 5 Sudeste 10 Sudeste 0 -- -- 86
2019-08-09 18:00:00 19 6 Sudeste 13 Oeste 1 -- -- 90
2019-08-09 17:00:00 17.9 12 Oeste 33 Oeste 1 -- -- 93
2019-08-09 16:00:00 21 11 Oeste 26 Oeste 0.4 -- -- 81
2019-08-09 15:00:00 21.2 11 Oeste 30 Oeste 0.8 -- -- 89
2019-08-09 14:00:00 21.6 11 Oeste 20 Sudoeste 0.4 -- -- 91
2019-08-09 13:00:00 21.4 13 Oeste 30 Oeste 1.4 -- -- 90
2019-08-09 12:00:00 22.1 7 Sudoeste 20 Sudoeste 2.6 -- -- 92
2019-08-09 11:00:00 21.9 5 Sudeste 12 Sur 0 -- -- 90
2019-08-09 10:00:00 21.4 5 Sur 13 Sur 0 -- -- 91
2019-08-09 09:00:00 20.8 6 Sur 20 Sur 0.4 -- -- 90
2019-08-09 08:00:00 21.4 10 Sur 18 Sur 0 -- -- 84
2019-08-09 07:00:00 21.3 5 Sudeste 12 Sur 0 -- -- 84
2019-08-09 06:00:00 20.9 4 Sur 10 Sudeste 0 -- -- 85
2019-08-09 05:00:00 21.5 6 Oeste 15 Oeste 0 -- -- 81
2019-08-09 04:00:00 21.3 3 Sudoeste 24 Oeste 0 -- -- 80
2019-08-09 03:00:00 22 14 Oeste 30 Oeste 0 -- -- 77
2019-08-09 02:00:00 23.3 9 Oeste 28 Oeste 0 -- -- 70
2019-08-09 01:00:00 24.3 15 Oeste 26 Oeste 0 -- -- 66
2019-08-09 00:00:00 25.3 12 Oeste 25 Oeste 0 -- -- 60
2019-08-08 23:00:00 26.6 14 Oeste 24 Oeste 0 -- -- 55
2019-08-08 22:00:00 27.7 12 Oeste 26 Oeste 0 -- -- 52
2019-08-08 21:00:00 29.6 18 Oeste 33 Noroeste 0 -- -- 48
2019-08-08 20:00:00 31 20 Oeste 35 Noroeste 0 -- -- 45
2019-08-08 19:00:00 32 15 Oeste 30 Oeste 0 -- -- 45
2019-08-08 18:00:00 32.4 9 Sudoeste 31 Sur 0 -- -- 43
2019-08-08 17:00:00 32.5 15 Sudoeste 28 Sur 0 -- -- 42
2019-08-08 16:00:00 32 15 Sur 29 Sudeste 0 -- -- 41
2019-08-08 15:00:00 30.5 11 Sudoeste 26 Sur 0 -- -- 47
2019-08-08 14:00:00 28.8 12 Sudoeste 24 Sudoeste 0 -- -- 53
2019-08-08 13:00:00 27.6 9 Sudoeste 19 Sur 0 -- -- 58
2019-08-08 12:00:00 25.8 9 Sur 18 Sur 0 -- -- 66
2019-08-08 11:00:00 24.9 10 Sudeste 18 Sur 0 -- -- 68
2019-08-08 10:00:00 22.7 6 Sudeste 11 Sudeste 0 -- -- 69
2019-08-08 09:00:00 21 0 Calma 6 Sudeste 0 -- -- 71
2019-08-08 08:00:00 20.1 3 Sudeste 4 Sur 0 -- -- 73
2019-08-08 07:00:00 19.7 0 Calma 3 Nordeste 0 -- -- 73
2019-08-08 06:00:00 19.2 0 Calma 4 Oeste 0 -- -- 73
2019-08-08 05:00:00 18.6 0 Calma 5 Noroeste 0 -- -- 73
2019-08-08 04:00:00 19.1 4 Oeste 5 Oeste 0 -- -- 71
2019-08-08 03:00:00 19.5 2 Noroeste 4 Noroeste 0 -- -- 68
2019-08-08 02:00:00 21.1 0 Calma 3 Sudeste 0 -- -- 62
2019-08-08 01:00:00 21.4 3 Noroeste 6 Oeste 0 -- -- 60
2019-08-08 00:00:00 22 5 Oeste 10 Oeste 0 -- -- 57
2019-08-07 23:00:00 21.8 4 Oeste 7 Sudoeste 0 -- -- 69
2019-08-07 22:00:00 23.6 3 Sur 4 Sur 0 -- -- 66
2019-08-07 21:00:00 25.2 4 Sur 14 Sudeste 0 -- -- 61
2019-08-07 20:00:00 26.7 10 Sudeste 18 Sur 0 -- -- 56
2019-08-07 19:00:00 26.8 13 Sur 21 Sudeste 0 -- -- 54
2019-08-07 18:00:00 24.7 8 Sudeste 13 Sur 0 -- -- 65
2019-08-07 17:00:00 23.8 5 Sudeste 13 Sur 0 -- -- 65
2019-08-07 16:00:00 23.7 6 Sudeste 11 Sudeste 0 -- -- 68
2019-08-07 15:00:00 22.1 9 Sudeste 15 Sur 0 -- -- 78
2019-08-07 14:00:00 20.9 9 Sur 17 Sudoeste 0.2 -- -- 83
2019-08-07 13:00:00 21.7 10 Sur 16 Sur 0 -- -- 76
2019-08-07 12:00:00 22.5 8 Sudoeste 15 Sudoeste 0 -- -- 68
2019-08-07 11:00:00 22.2 8 Sudoeste 14 Sudoeste 0 -- -- 70
2019-08-07 10:00:00 21.6 3 Sudoeste 8 Sur 0 -- -- 70
2019-08-07 09:00:00 21.1 3 Sudoeste 7 Sudoeste 0 -- -- 70
2019-08-07 08:00:00 20.9 4 Sudoeste 9 Sur 0 -- -- 70
2019-08-07 07:00:00 21.3 5 Oeste 12 Oeste 0 -- -- 69
2019-08-07 06:00:00 21.5 8 Oeste 13 Oeste 0 -- -- 67
2019-08-07 05:00:00 22 6 Oeste 10 Oeste 0 -- -- 66
2019-08-07 04:00:00 22.4 6 Oeste 13 Noroeste 0 -- -- 63
2019-08-07 03:00:00 23.3 3 Sur 20 Oeste 0 -- -- 60
2019-08-07 02:00:00 23.8 12 Oeste 20 Oeste 0 -- -- 58
2019-08-07 01:00:00 24.9 13 Oeste 21 Oeste 0 -- -- 57
2019-08-07 00:00:00 26 9 Oeste 17 Oeste 0 -- -- 50
2019-08-06 23:00:00 27.5 10 Oeste 33 Noroeste 0 -- -- 44
2019-08-06 22:00:00 29 12 Oeste 22 Oeste 0 -- -- 38
2019-08-06 21:00:00 30.9 13 Oeste 24 Oeste 0 -- -- 35
2019-08-06 20:00:00 33.1 14 Oeste 26 Oeste 0 -- -- 30
2019-08-06 19:00:00 33.4 15 Sur 29 Sudoeste 0 -- -- 31
2019-08-06 18:00:00 34.1 9 Sudoeste 27 Sudoeste 0 -- -- 29
2019-08-06 17:00:00 33.6 14 Sudoeste 31 Sudoeste 0 -- -- 30
2019-08-06 16:00:00 33.6 11 Sudoeste 26 Oeste 0 -- -- 31
2019-08-06 15:00:00 32.2 13 Sur 24 Sur 0 -- -- 36
2019-08-06 14:00:00 31 12 Sur 22 Sudeste 0 -- -- 39
2019-08-06 13:00:00 29 9 Sudoeste 24 Sur 0 -- -- 42
2019-08-06 12:00:00 27.7 8 Sur 15 Sudeste 0 -- -- 46
2019-08-06 11:00:00 25.6 7 Sudeste 13 Sudeste 0 -- -- 47
2019-08-06 10:00:00 22.6 5 Sudeste 12 Sudeste 0 -- -- 59
2019-08-06 09:00:00 20.9 2 Oeste 5 Noroeste 0 -- -- 62
2019-08-06 08:00:00 17.3 4 Noroeste 6 Noroeste 0 -- -- 72
2019-08-06 07:00:00 18.3 0 Calma 6 Este 0 -- -- 63
2019-08-06 06:00:00 19.5 3 Oeste 7 Oeste 0 -- -- 59
2019-08-06 05:00:00 19.7 3 Noroeste 6 Oeste 0 -- -- 58
2019-08-06 04:00:00 20.5 5 Noroeste 6 Noroeste 0 -- -- 54
2019-08-06 03:00:00 21.4 3 Noroeste 6 Sur 0 -- -- 50
2019-08-06 02:00:00 23.9 6 Sur 8 Sur 0 -- -- 45
2019-08-06 01:00:00 25.6 3 Norte 9 Norte 0 -- -- 45
2019-08-06 00:00:00 26 3 Noroeste 14 Noroeste 0 -- -- 33
2019-08-05 23:00:00 25.9 4 Noroeste 9 Sudoeste 0 -- -- 30
2019-08-05 22:00:00 29.5 4 Sudoeste 9 Sur 0 -- -- 26
2019-08-05 21:00:00 32.8 7 Sur 15 Sur 0 -- -- 22
2019-08-05 20:00:00 34.5 10 Sur 18 Sudeste 0 -- -- 23
2019-08-05 19:00:00 35.4 13 Sudeste 21 Sudeste 0 -- -- 22
2019-08-05 18:00:00 35.3 16 Sudeste 27 Sur 0 -- -- 19
2019-08-05 17:00:00 34.8 14 Sudeste 23 Sur 0 -- -- 20
2019-08-05 16:00:00 33.8 11 Sur 23 Sur 0 -- -- 21
2019-08-05 15:00:00 32.8 12 Sur 22 Sur 0 -- -- 23
2019-08-05 14:00:00 30.8 11 Sur 23 Sudeste 0 -- -- 26
2019-08-05 13:00:00 29 10 Sudeste 20 Sur 0 -- -- 41
2019-08-05 12:00:00 26 6 Sudeste 13 Sudeste 0 -- -- 47
2019-08-05 11:00:00 23.1 6 Sur 10 Sudeste 0 -- -- 62
2019-08-05 10:00:00 20.3 7 Sudeste 9 Sudeste 0 -- -- 70
2019-08-05 09:00:00 18.2 2 Nordeste 4 Nordeste 0 -- -- 69
2019-08-05 08:00:00 15.3 2 Oeste 4 Norte 0 -- -- 75
2019-08-05 07:00:00 15.9 2 Noroeste 3 Sur 0 -- -- 69
2019-08-05 06:00:00 17.4 3 Sur 5 Noroeste 0 -- -- 63
2019-08-05 05:00:00 18 5 Noroeste 6 Noroeste 0 -- -- 61
2019-08-05 04:00:00 19 2 Noroeste 8 Nordeste 0 -- -- 57
2019-08-05 03:00:00 20.9 5 Norte 10 Nordeste 0 -- -- 53
2019-08-05 02:00:00 21.4 4 Noroeste 8 Oeste 0 -- -- 53
2019-08-05 01:00:00 23.7 2 Sudeste 12 Oeste 0 -- -- 46
2019-08-05 00:00:00 25.7 4 Oeste 22 Oeste 0 -- -- 39
2019-08-04 23:00:00 27.5 14 Oeste 23 Oeste 0 -- -- 36
2019-08-04 22:00:00 29.4 10 Oeste 21 Oeste 0 -- -- 31
2019-08-04 21:00:00 32.9 14 Oeste 28 Oeste 0 -- -- 25
2019-08-04 20:00:00 34.4 18 Oeste 30 Oeste 0 -- -- 25
2019-08-04 19:00:00 35.4 15 Sudoeste 29 Sur 0 -- -- 23
2019-08-04 18:00:00 35.5 13 Sudoeste 27 Sudoeste 0 -- -- 25
2019-08-04 17:00:00 35.6 8 Sudeste 31 Sur 0 -- -- 28
2019-08-04 16:00:00 34.4 11 Sur 26 Sur 0 -- -- 30
2019-08-04 15:00:00 33.3 12 Sur 26 Sur 0 -- -- 34
2019-08-04 14:00:00 31.6 16 Sudeste 25 Sudeste 0 -- -- 39
2019-08-04 13:00:00 30.3 14 Sudeste 23 Sur 0 -- -- 43
2019-08-04 12:00:00 28.3 10 Sudeste 17 Sudeste 0 -- -- 50
2019-08-04 11:00:00 25.7 10 Sudeste 15 Sudeste 0 -- -- 58
2019-08-04 10:00:00 23.1 7 Sudeste 10 Sudeste 0 -- -- 65
2019-08-04 09:00:00 20.5 3 Sudeste 6 Sudeste 0 -- -- 66
2019-08-04 08:00:00 19.3 2 Sur 8 Noroeste 0 -- -- 64
2019-08-04 07:00:00 19.6 6 Noroeste 8 Oeste 0 -- -- 62
2019-08-04 06:00:00 19.4 4 Noroeste 6 Noroeste 0 -- -- 65
2019-08-04 05:00:00 20.2 2 Oeste 8 Oeste 0 -- -- 61
2019-08-04 04:00:00 22.3 3 Sudeste 6 Sudeste 0 -- -- 53
2019-08-04 03:00:00 22.9 5 Noroeste 8 Noroeste 0 -- -- 51
2019-08-04 02:00:00 24.1 3 Oeste 8 Noroeste 0 -- -- 49
2019-08-04 01:00:00 26.3 2 Sudeste 15 Norte 0 -- -- 45
2019-08-04 00:00:00 28.2 10 Noroeste 24 Norte 0 -- -- 41
2019-08-03 23:00:00 29.5 13 Norte 19 Norte 0 -- -- 38
2019-08-03 22:00:00 29.1 2 Norte 5 Sudoeste 0 -- -- 31
2019-08-03 21:00:00 33.9 4 Sur 13 Sudeste 0 -- -- 24
2019-08-03 20:00:00 35 9 Sur 18 Sudeste 0 -- -- 21
2019-08-03 19:00:00 36 11 Sur 21 Sur 0 -- -- 20
2019-08-03 18:00:00 35.9 12 Sur 25 Sur 0 -- -- 19
2019-08-03 17:00:00 35.4 13 Sudoeste 28 Sur 0 -- -- 21
2019-08-03 16:00:00 34.9 15 Sur 25 Sudeste 0 -- -- 25
2019-08-03 15:00:00 34.9 11 Este 27 Sudeste 0 -- -- 26
2019-08-03 14:00:00 32.1 14 Sur 23 Sur 0 -- -- 33
2019-08-03 13:00:00 30.5 10 Sudeste 19 Sudeste 0 -- -- 37
2019-08-03 12:00:00 28 8 Sudeste 14 Sudeste 0 -- -- 42
2019-08-03 11:00:00 25.5 9 Sudeste 14 Sudeste 0 -- -- 51
2019-08-03 10:00:00 23.7 7 Sudeste 9 Sudeste 0 -- -- 52
2019-08-03 09:00:00 20.4 0 Calma 4 Norte 0 -- -- 53
2019-08-03 08:00:00 16.7 3 Noroeste 4 Norte 0 -- -- 60
2019-08-03 07:00:00 18 3 Sur 6 Sur 0 -- -- 55
2019-08-03 06:00:00 19.3 4 Noroeste 9 Noroeste 0 -- -- 50
2019-08-03 05:00:00 19.7 8 Oeste 9 Oeste 0 -- -- 49
2019-08-03 04:00:00 19.4 4 Noroeste 7 Noroeste 0 -- -- 44
2019-08-03 03:00:00 20.2 3 Noroeste 5 Norte 0 -- -- 40
2019-08-03 02:00:00 22.4 2 Este 12 Sudeste 0 -- -- 34
2019-08-03 01:00:00 23.7 5 Noroeste 12 Oeste 0 -- -- 32
2019-08-03 00:00:00 24.1 5 Noroeste 8 Noroeste 0 -- -- 30
2019-08-02 23:00:00 26.2 5 Noroeste 8 Oeste 0 -- -- 28
2019-08-02 22:00:00 28.4 3 Noroeste 5 Sudoeste 0 -- -- 26
2019-08-02 21:00:00 34.9 4 Oeste 8 Sur 0 -- -- 18
2019-08-02 20:00:00 35.7 5 Sur 14 Sur 0 -- -- 15
2019-08-02 19:00:00 36.2 7 Sudeste 15 Sudeste 0 -- -- 13
2019-08-02 18:00:00 35.8 12 Sudeste 18 Sudeste 0 -- -- 18
2019-08-02 17:00:00 35.6 5 Sudeste 15 Sudoeste 0 -- -- 18
2019-08-02 16:00:00 33.9 9 Sur 23 Sudeste 0 -- -- 17
2019-08-02 15:00:00 32.8 8 Sur 19 Sudeste 0 -- -- 26
2019-08-02 14:00:00 30.8 9 Sur 26 Sudeste 0 -- -- 32
2019-08-02 13:00:00 29.4 10 Sudeste 17 Sudeste 0 -- -- 38
2019-08-02 12:00:00 25.8 6 Sur 13 Sudeste 0 -- -- 42
2019-08-02 11:00:00 23.3 6 Sudeste 10 Sur 0 -- -- 54
2019-08-02 10:00:00 21.2 5 Sudeste 9 Sudeste 0 -- -- 58
2019-08-02 09:00:00 18.3 0 Calma 6 Sudeste 0 -- -- 60
2019-08-02 08:00:00 16.6 4 Noroeste 6 Oeste 0 -- -- 62
2019-08-02 07:00:00 16.5 4 Noroeste 6 Noroeste 0 -- -- 62
2019-08-02 06:00:00 17.3 0 Calma 6 Oeste 0 -- -- 59
2019-08-02 05:00:00 18 2 Noroeste 5 Norte 0 -- -- 56
2019-08-02 04:00:00 19.4 0 Calma 8 Sudeste 0 -- -- 53
2019-08-02 03:00:00 20.1 4 Noroeste 6 Noroeste 0 -- -- 50
2019-08-02 02:00:00 21.3 2 Noroeste 7 Sudeste 0 -- -- 47
2019-08-02 01:00:00 23.7 4 Noroeste 15 Noroeste 0 -- -- 42
2019-08-02 00:00:00 26.5 11 Noroeste 18 Noroeste 0 -- -- 36
2019-08-01 23:00:00 27.8 10 Noroeste 21 Oeste 0 -- -- 32
2019-08-01 22:00:00 29.7 14 Oeste 26 Oeste 0 -- -- 28
2019-08-01 21:00:00 32.8 6 Sudoeste 19 Sur 0 -- -- 24
2019-08-01 20:00:00 34 12 Sur 27 Sur 0 -- -- 22
2019-08-01 19:00:00 34.8 12 Sur 26 Sur 0 -- -- 22
2019-08-01 18:00:00 34.7 16 Sudoeste 33 Sudoeste 0 -- -- 23
2019-08-01 17:00:00 34.8 13 Sudoeste 30 Sur 0 -- -- 23
2019-08-01 16:00:00 33.8 15 Sur 28 Sur 0 -- -- 27
2019-08-01 15:00:00 32.3 12 Sur 23 Sur 0 -- -- 30
2019-08-01 14:00:00 31 14 Sur 26 Sudeste 0 -- -- 33
2019-08-01 13:00:00 30.1 11 Sudeste 19 Este 0 -- -- 39
2019-08-01 12:00:00 28.9 8 Este 15 Este 0 -- -- 42
2019-08-01 11:00:00 26.4 6 Sur 18 Sur 0 -- -- 43
2019-08-01 10:00:00 24.9 5 Este 10 Nordeste 0 -- -- 40
2019-08-01 09:00:00 20.5 4 Norte 8 Este 0 -- -- 50
2019-08-01 08:00:00 16.4 4 Nordeste 8 Nordeste 0 -- -- 59
2019-08-01 07:00:00 16.6 3 Este 6 Este 0 -- -- 57
2019-08-01 06:00:00 17.8 3 Noroeste 6 Oeste 0 -- -- 51
2019-08-01 05:00:00 18.9 4 Noroeste 6 Noroeste 0 -- -- 48
2019-08-01 04:00:00 21 4 Oeste 6 Noroeste 0 -- -- 43
2019-08-01 03:00:00 22.7 4 Noroeste 9 Oeste 0 -- -- 39
2019-08-01 02:00:00 24.1 6 Noroeste 10 Oeste 0 -- -- 37
2019-08-01 01:00:00 26.3 2 Sur 15 Noroeste 0 -- -- 35
2019-08-01 00:00:00 27.7 10 Norte 17 Norte 0 -- -- 31
2019-07-31 23:00:00 28.1 9 Noroeste 21 Norte 0 -- -- 32
2019-07-31 22:00:00 29.3 12 Noroeste 22 Noroeste 0 -- -- 31
2019-07-31 21:00:00 31.8 7 Noroeste 13 Oeste 0 -- -- 18
2019-07-31 20:00:00 33.3 9 Oeste 15 Oeste 0 -- -- 17
2019-07-31 19:00:00 34.5 7 Oeste 18 Oeste 0 -- -- 17
2019-07-31 18:00:00 35.2 6 Sudeste 18 Sudoeste 0 -- -- 16
2019-07-31 17:00:00 34.9 6 Sudeste 18 Sudeste 0 -- -- 20
2019-07-31 16:00:00 33.9 7 Sudeste 22 Sudoeste 0 -- -- 25
2019-07-31 15:00:00 33 9 Este 22 Sur 0 -- -- 29
2019-07-31 14:00:00 31.6 9 Sur 23 Sudeste 0 -- -- 32
2019-07-31 13:00:00 30.6 7 Sudeste 27 Este 0 -- -- 36
2019-07-31 12:00:00 28.9 13 Sudeste 29 Este 0 -- -- 37
2019-07-31 11:00:00 27.1 9 Este 21 Este 0 -- -- 38
2019-07-31 10:00:00 24.7 9 Nordeste 22 Norte 0 -- -- 34
2019-07-31 09:00:00 21.6 12 Norte 22 Norte 0 -- -- 38
2019-07-31 08:00:00 19.2 6 Nordeste 12 Nordeste 0 -- -- 40
2019-07-31 07:00:00 19.7 4 Norte 14 Norte 0 -- -- 38
2019-07-31 06:00:00 21.6 9 Nordeste 28 Nordeste 0 -- -- 34
2019-07-31 05:00:00 20.1 9 Este 16 Sudeste 0 -- -- 38
2019-07-31 04:00:00 22 4 Este 19 Norte 0 -- -- 33
2019-07-31 03:00:00 23.5 10 Norte 27 Norte 0 -- -- 31
2019-07-31 02:00:00 24.4 14 Norte 32 Norte 0 -- -- 29
2019-07-31 01:00:00 24.7 14 Norte 27 Norte 0 -- -- 27
2019-07-31 00:00:00 24.9 13 Norte 23 Norte 0 -- -- 26
2019-07-30 23:00:00 25.4 12 Norte 23 Noroeste 0 -- -- 24
2019-07-30 22:00:00 26.6 10 Norte 22 Norte 0 -- -- 23
2019-07-30 21:00:00 29.5 11 Norte 24 Nordeste 0 -- -- 21
2019-07-30 20:00:00 31.4 13 Nordeste 27 Norte 0 -- -- 19
2019-07-30 19:00:00 31.9 12 Norte 26 Norte 0 -- -- 18
2019-07-30 18:00:00 31.8 10 Norte 28 Norte 0 -- -- 18
2019-07-30 17:00:00 31.4 10 Nordeste 30 Nordeste 0 -- -- 21
2019-07-30 16:00:00 30.5 12 Norte 27 Nordeste 0 -- -- 22
2019-07-30 15:00:00 30.1 15 Nordeste 30 Nordeste 0 -- -- 22
2019-07-30 14:00:00 27.9 13 Norte 31 Norte 0 -- -- 24
2019-07-30 13:00:00 26.1 14 Nordeste 34 Nordeste 0 -- -- 29
2019-07-30 12:00:00 23.7 17 Norte 35 Norte 0 -- -- 35
2019-07-30 11:00:00 21.4 23 Norte 45 Norte 0 -- -- 41
2019-07-30 10:00:00 19.5 21 Norte 39 Norte 0 -- -- 46
2019-07-30 09:00:00 17.8 17 Norte 31 Norte 0 -- -- 47
2019-07-30 08:00:00 15.8 9 Norte 20 Norte 0 -- -- 51
2019-07-30 07:00:00 15.8 7 Norte 19 Norte 0 -- -- 54
2019-07-30 06:00:00 16.6 11 Norte 26 Norte 0 -- -- 51
2019-07-30 05:00:00 17.3 14 Norte 27 Noroeste 0 -- -- 48
2019-07-30 04:00:00 17.5 8 Norte 22 Norte 0 -- -- 48
2019-07-30 03:00:00 18.2 9 Norte 20 Norte 0 -- -- 49
2019-07-30 02:00:00 19 8 Norte 27 Noroeste 0 -- -- 49
2019-07-30 01:00:00 20.1 17 Norte 31 Noroeste 0 -- -- 46
2019-07-30 00:00:00 21.1 24 Norte 36 Norte 0 -- -- 43
2019-07-29 23:00:00 22.7 23 Norte 40 Norte 0 -- -- 38
2019-07-29 22:00:00 24.3 19 Norte 36 Noroeste 0 -- -- 32
2019-07-29 21:00:00 26.8 23 Norte 34 Norte 0 -- -- 29
2019-07-29 20:00:00 29 19 Norte 33 Norte 0 -- -- 27
2019-07-29 19:00:00 30.1 16 Noroeste 36 Noroeste 0 -- -- 26
2019-07-29 18:00:00 30.7 14 Noroeste 29 Noroeste 0 -- -- 23
2019-07-29 17:00:00 30.4 10 Noroeste 35 Noroeste 0 -- -- 24
2019-07-29 16:00:00 30.3 15 Noroeste 32 Noroeste 0 -- -- 28
2019-07-29 15:00:00 29.1 12 Noroeste 28 Oeste 0 -- -- 37
2019-07-29 14:00:00 27.9 14 Noroeste 26 Oeste 0 -- -- 38
2019-07-29 13:00:00 27.3 11 Noroeste 23 Noroeste 0 -- -- 41
2019-07-29 12:00:00 25.8 12 Sudeste 20 Sudeste 0 -- -- 47
2019-07-29 11:00:00 23.4 11 Sudeste 18 Sudeste 0 -- -- 45
2019-07-29 10:00:00 21.6 5 Sudeste 9 Sudeste 0 -- -- 47
2019-07-29 09:00:00 17.9 3 Sudeste 6 Oeste 0 -- -- 63
2019-07-29 08:00:00 15.6 6 Oeste 8 Oeste 0 -- -- 70
2019-07-29 07:00:00 14.9 3 Noroeste 6 Oeste 0 -- -- 71
2019-07-29 06:00:00 16.4 4 Noroeste 9 Nordeste 0 -- -- 66
2019-07-29 05:00:00 17.7 4 Noroeste 8 Noroeste 0 -- -- 60
2019-07-29 04:00:00 19.7 3 Oeste 13 Noroeste 0 -- -- 54
2019-07-29 03:00:00 21 7 Noroeste 17 Oeste 0 -- -- 51
2019-07-29 02:00:00 22.1 9 Oeste 13 Oeste 0 -- -- 51
2019-07-29 01:00:00 24.1 8 Noroeste 17 Noroeste 0 -- -- 44
2019-07-29 00:00:00 24.6 8 Noroeste 17 Oeste 0 -- -- 43
2019-07-28 23:00:00 25.5 8 Oeste 14 Oeste 0 -- -- 39
2019-07-28 22:00:00 28.1 5 Sudoeste 10 Sur 0 -- -- 34
2019-07-28 21:00:00 30.1 8 Sur 15 Sudeste 0 -- -- 34
2019-07-28 20:00:00 31.4 12 Sur 21 Sur 0 -- -- 30
2019-07-28 19:00:00 32.2 15 Sudeste 23 Sudeste 0 -- -- 29
2019-07-28 18:00:00 32.3 16 Sudeste 23 Sudeste 0 -- -- 23
2019-07-28 17:00:00 31.6 15 Sur 27 Sudeste 0 -- -- 29
2019-07-28 16:00:00 30.8 14 Sur 23 Sudeste 0 -- -- 33
2019-07-28 15:00:00 29.9 12 Sur 23 Sudeste 0 -- -- 33
2019-07-28 14:00:00 28.9 9 Sudeste 21 Sur 0 -- -- 38
2019-07-28 13:00:00 28 11 Sudeste 22 Sudeste 0 -- -- 40
2019-07-28 12:00:00 26.6 13 Sudeste 22 Sudeste 0 -- -- 43
2019-07-28 11:00:00 24.5 9 Sudeste 19 Este 0 -- -- 51
2019-07-28 10:00:00 23 9 Sudeste 19 Este 0 -- -- 53
2019-07-28 09:00:00 20.3 5 Sudeste 14 Nordeste 0 -- -- 59
2019-07-28 08:00:00 18.9 6 Nordeste 14 Norte 0 -- -- 59
2019-07-28 07:00:00 19.3 6 Nordeste 22 Norte 0 -- -- 57
2019-07-28 06:00:00 20.1 10 Norte 23 Nordeste 0 -- -- 56
2019-07-28 05:00:00 20.3 6 Norte 16 Norte 0 -- -- 58
2019-07-28 04:00:00 20.4 6 Norte 14 Norte 0 -- -- 59
2019-07-28 03:00:00 21 9 Norte 15 Norte 0 -- -- 58
2019-07-28 02:00:00 21.9 12 Norte 20 Norte 0 -- -- 57
2019-07-28 01:00:00 22.4 11 Noroeste 17 Noroeste 0 -- -- 57
2019-07-28 00:00:00 23.3 6 Noroeste 14 Oeste 0 -- -- 53
2019-07-27 23:00:00 24.7 4 Oeste 22 Oeste 0 -- -- 47
2019-07-26 12:00:00 -- -- -- -- -- -- -- -- --
2019-07-26 11:00:00 -- -- -- -- -- -- -- -- --
2019-07-26 10:00:00 21.7 4 Sur 9 Sudeste 0 -- -- 59
2019-07-26 09:00:00 20.7 0 Calma 12 Norte 0 -- -- 63
2019-07-26 08:00:00 19.6 4 Norte 19 Noroeste 0 -- -- 64
2019-07-26 07:00:00 19.9 10 Noroeste 23 Noroeste 0 -- -- 64
2019-07-26 06:00:00 20.6 10 Norte 20 Noroeste 0 -- -- 67
2019-07-26 05:00:00 21.2 4 Noroeste 13 Noroeste 0 -- -- 68
2019-07-26 04:00:00 22.1 6 Noroeste 13 Noroeste 0 -- -- 67
2019-07-26 03:00:00 22.6 8 Noroeste 22 Noroeste 0 -- -- 65
2019-07-26 02:00:00 23.6 10 Noroeste 18 Noroeste 0 -- -- 63
2019-07-26 01:00:00 24.4 8 Oeste 22 Noroeste 0 -- -- 61
2019-07-26 00:00:00 25.5 14 Oeste 26 Oeste 0 -- -- 57
2019-07-25 23:00:00 26.7 14 Oeste 29 Oeste 0 -- -- 50
2019-07-25 22:00:00 28.1 16 Noroeste 32 Oeste 0 -- -- 46
2019-07-25 21:00:00 30.5 17 Oeste 25 Oeste 0 -- -- 34
2019-07-25 20:00:00 32 13 Oeste 29 Oeste 0 -- -- 33
2019-07-25 19:00:00 34 18 Oeste 33 Sudoeste 0 -- -- 25
2019-07-25 18:00:00 33.8 17 Oeste 33 Oeste 0 -- -- 26
2019-07-25 17:00:00 33.6 17 Oeste 32 Sudoeste 0 -- -- 30
2019-07-25 16:00:00 33 16 Oeste 32 Sur 0 -- -- 32
2019-07-25 15:00:00 32.1 14 Sur 32 Sudoeste 0 -- -- 35
2019-07-25 14:00:00 31.3 13 Sur 21 Sur 0 -- -- 37
2019-07-25 13:00:00 29.1 12 Sur 23 Sur 0 -- -- 44
2019-07-25 12:00:00 26.9 10 Sudeste 19 Sudeste 0 -- -- 52
2019-07-25 11:00:00 25.7 9 Sudeste 14 Sudeste 0 -- -- 53
2019-07-25 10:00:00 24.8 4 Sur 20 Oeste 0 -- -- 53
2019-07-25 09:00:00 22.4 11 Oeste 21 Oeste 0 -- -- 55
2019-07-25 08:00:00 18.6 3 Noroeste 6 Oeste 0 -- -- 62
2019-07-25 07:00:00 19.9 3 Noroeste 8 Noroeste 0 -- -- 56
2019-07-25 06:00:00 20.3 5 Noroeste 9 Noroeste 0 -- -- 57
2019-07-25 05:00:00 21.2 5 Noroeste 9 Oeste 0 -- -- 56
2019-07-25 04:00:00 21.7 3 Norte 6 Nordeste 0 -- -- 54
2019-07-25 03:00:00 23.3 2 Oeste 8 Oeste 0 -- -- 50
2019-07-25 02:00:00 24.7 4 Oeste 6 Oeste 0 -- -- 46
2019-07-25 01:00:00 27 3 Norte 19 Noroeste 0 -- -- 41
2019-07-25 00:00:00 29.3 12 Noroeste 22 Noroeste 0 -- -- 37
2019-07-24 23:00:00 30.6 14 Noroeste 24 Oeste 0 -- -- 33
2019-07-24 22:00:00 32.6 14 Oeste 29 Oeste 0 -- -- 29
2019-07-24 21:00:00 36 8 Sudoeste 25 Sudoeste 0 -- -- 24
2019-07-24 20:00:00 36.7 15 Sur 25 Sur 0 -- -- 24
2019-07-24 19:00:00 37.7 13 Sur 31 Sur 0 -- -- 23
2019-07-24 18:00:00 37.9 12 Oeste 28 Sudoeste 0 -- -- 24
2019-07-24 17:00:00 37.3 12 Sudoeste 30 Oeste 0 -- -- 25
2019-07-24 16:00:00 36.8 11 Sur 23 Sudoeste 0 -- -- 27
2019-07-24 15:00:00 36.2 10 Sudoeste 24 Sudoeste 0 -- -- 29
2019-07-24 14:00:00 34.6 8 Sudeste 22 Sur 0 -- -- 31
2019-07-24 13:00:00 33.6 11 Sur 25 Sudeste 0 -- -- 31
2019-07-24 12:00:00 32.1 10 Sudeste 19 Sudeste 0 -- -- 36
2019-07-24 11:00:00 30 10 Sudeste 17 Sudeste 0 -- -- 42
2019-07-24 10:00:00 28 7 Sudeste 12 Sudeste 0 -- -- 44
2019-07-24 09:00:00 25 5 Sur 9 Sudeste 0 -- -- 52
2019-07-24 08:00:00 21.1 2 Oeste 4 Oeste 0 -- -- 61
2019-07-24 07:00:00 22 4 Nordeste 9 Este 0 -- -- 58
2019-07-24 06:00:00 22 3 Noroeste 6 Nordeste 0 -- -- 58
2019-07-24 05:00:00 23.1 0 Calma 10 Oeste 0 -- -- 54
2019-07-24 04:00:00 23.5 3 Norte 7 Nordeste 0 -- -- 53
2019-07-24 03:00:00 25.3 0 Calma 14 Sudeste 0 -- -- 49
2019-07-24 02:00:00 27.3 8 Sudeste 13 Sudeste 0 -- -- 42
2019-07-24 01:00:00 28.3 5 Sudoeste 13 Sudoeste 0 -- -- 42
2019-07-24 00:00:00 28.4 3 Sur 21 Sudeste 0 -- -- 48
2019-07-23 23:00:00 30.8 13 Noroeste 27 Noroeste 0 -- -- 44
2019-07-23 22:00:00 32.6 13 Oeste 21 Oeste 0 -- -- 33
2019-07-23 21:00:00 35.8 5 Sur 18 Sur 0 -- -- 27
2019-07-23 20:00:00 36.4 12 Sudoeste 24 Sudoeste 0 -- -- 28
2019-07-23 19:00:00 37 14 Sudoeste 24 Sur 0 -- -- 30
2019-07-23 18:00:00 37.4 12 Sur 24 Oeste 0 -- -- 30
2019-07-23 17:00:00 38.2 12 Sudeste 25 Sudeste 0 -- -- 28
2019-07-23 16:00:00 36 10 Sudeste 22 Sur 0 -- -- 30
2019-07-23 15:00:00 35.3 10 Sudeste 25 Sudeste 0 -- -- 31
2019-07-23 14:00:00 33.4 15 Sudeste 33 Sudeste 0 -- -- 33
2019-07-23 13:00:00 32.5 18 Sudeste 36 Sudeste 0 -- -- 34
2019-07-23 12:00:00 31.2 16 Sudeste 29 Sudeste 0 -- -- 37
2019-07-23 11:00:00 30.2 16 Sudeste 35 Este 0 -- -- 39
2019-07-23 10:00:00 26.7 15 Sudeste 33 Sudeste 0 -- -- 47
2019-07-23 09:00:00 25.6 8 Este 14 Este 0 -- -- 55
2019-07-23 08:00:00 23.6 5 Este 12 Sudeste 0 -- -- 61
2019-07-23 07:00:00 24.3 6 Sudeste 13 Sudeste 0 -- -- 57
2019-07-23 06:00:00 25.4 4 Norte 9 Norte 0 -- -- 52
2019-07-23 05:00:00 26.1 7 Este 24 Nordeste 0 -- -- 50
2019-07-23 04:00:00 26.3 6 Sudoeste 12 Oeste 0 -- -- 50
2019-07-23 03:00:00 24.7 5 Noroeste 15 Sur 0.2 -- -- 61
2019-07-23 02:00:00 28 6 Oeste 14 Norte 0 -- -- 41
2019-07-23 01:00:00 28.6 7 Noroeste 13 Noroeste 0 -- -- 39
2019-07-23 00:00:00 29.9 6 Sudoeste 22 Sur 0 -- -- 38
2019-07-22 23:00:00 30 9 Sur 29 Sudeste 0 -- -- 43
2019-07-22 22:00:00 30.8 2 Noroeste 42 Sudeste 0.4 -- -- 49
2019-07-22 21:00:00 33.5 29 Sudeste 51 Sur 0 -- -- 35
2019-07-22 20:00:00 39.1 5 Este 19 Este 0 -- -- 25
2019-07-22 19:00:00 40.1 11 Sudeste 24 Sudeste 0 -- -- 24
2019-07-22 18:00:00 40.3 13 Sudeste 26 Sudeste 0 -- -- 24
2019-07-22 17:00:00 39.4 17 Sudeste 26 Sur 0 -- -- 26
2019-07-22 16:00:00 38.8 17 Sudeste 29 Sudeste 0 -- -- 25
2019-07-22 15:00:00 37.7 19 Sudeste 27 Sudeste 0 -- -- 26
2019-07-22 14:00:00 36.9 15 Sudeste 28 Sudeste 0 -- -- 27
2019-07-22 13:00:00 35.5 14 Sudeste 27 Este 0 -- -- 28
2019-07-22 12:00:00 33.5 16 Sudeste 32 Este 0 -- -- 29
2019-07-22 11:00:00 31.4 20 Sudeste 33 Sudeste 0 -- -- 32
2019-07-22 10:00:00 29.4 15 Sudeste 31 Sudeste 0 -- -- 35
2019-07-22 09:00:00 27.7 12 Sudeste 22 Sudeste 0 -- -- 39
2019-07-22 08:00:00 27.1 7 Sudeste 23 Sudeste 0 -- -- 41
2019-07-22 07:00:00 26.4 11 Sudeste 17 Sudeste 0 -- -- 43
2019-07-22 06:00:00 24 2 Este 8 Sudeste 0 -- -- 46
2019-07-22 05:00:00 25 5 Norte 9 Oeste 0 -- -- 40
2019-07-22 04:00:00 24.6 4 Noroeste 12 Este 0 -- -- 39
2019-07-22 03:00:00 24.3 4 Nordeste 7 Este 0 -- -- 38
2019-07-22 02:00:00 25.2 2 Norte 10 Nordeste 0 -- -- 34
2019-07-22 01:00:00 26.6 3 Este 12 Norte 0 -- -- 31
2019-07-22 00:00:00 28.9 0 Calma 17 Noroeste 0 -- -- 30
2019-07-21 23:00:00 29.8 4 Noroeste 7 Noroeste 0 -- -- 26
2019-07-21 22:00:00 31.8 3 Noroeste 7 Oeste 0 -- -- 25
2019-07-21 21:00:00 37.9 5 Oeste 13 Oeste 0 -- -- 18
2019-07-21 20:00:00 38.7 6 Sudoeste 18 Oeste 0 -- -- 16
2019-07-21 19:00:00 39.2 8 Sudoeste 21 Sudoeste 0 -- -- 17
2019-07-21 18:00:00 39.3 9 Sur 22 Sur 0 -- -- 18
2019-07-21 17:00:00 38.9 6 Sudoeste 23 Oeste 0 -- -- 17
2019-07-21 16:00:00 38 10 Sur 21 Sur 0 -- -- 19
2019-07-21 15:00:00 36.5 12 Sur 24 Sur 0 -- -- 26
2019-07-21 14:00:00 35.3 9 Sudeste 20 Sudeste 0 -- -- 28
2019-07-21 13:00:00 33.7 7 Este 15 Sudeste 0 -- -- 34
2019-07-21 12:00:00 31.2 7 Sudeste 14 Sudeste 0 -- -- 37
2019-07-21 11:00:00 29 4 Sudeste 10 Sudeste 0 -- -- 39
2019-07-21 10:00:00 25.3 6 Sudeste 9 Sudeste 0 -- -- 54
2019-07-21 09:00:00 22.8 0 Calma 4 Este 0 -- -- 59
2019-07-21 08:00:00 19.7 2 Noroeste 7 Oeste 0 -- -- 67
2019-07-21 07:00:00 20.7 4 Oeste 7 Oeste 0 -- -- 63
2019-07-21 06:00:00 21.7 4 Noroeste 8 Oeste 0 -- -- 60
2019-07-21 05:00:00 22.4 4 Noroeste 10 Noroeste 0 -- -- 58
2019-07-21 04:00:00 24 8 Noroeste 12 Noroeste 0 -- -- 55
2019-07-21 03:00:00 25.1 9 Oeste 12 Noroeste 0 -- -- 53
2019-07-21 02:00:00 26.9 6 Norte 13 Noroeste 0 -- -- 48
2019-07-21 01:00:00 28 7 Norte 16 Nordeste 0 -- -- 46
2019-07-21 00:00:00 29.4 8 Norte 23 Norte 0 -- -- 43
2019-07-20 23:00:00 31 13 Norte 24 Norte 0 -- -- 34
2019-07-20 22:00:00 31.6 5 Norte 9 Norte 0 -- -- 30
2019-07-20 21:00:00 35.9 5 Sur 13 Sur 0 -- -- 24
2019-07-20 20:00:00 36.8 9 Sur 21 Oeste 0 -- -- 26
2019-07-20 19:00:00 37.7 8 Oeste 26 Oeste 0 -- -- 21
2019-07-20 18:00:00 37.7 14 Sudoeste 28 Sur 0 -- -- 21
2019-07-20 17:00:00 37.4 14 Sudeste 27 Sur 0 -- -- 25
2019-07-20 16:00:00 35.8 13 Sur 26 Sur 0 -- -- 29
2019-07-20 15:00:00 35.8 13 Sudeste 26 Sudeste 0 -- -- 31
2019-07-20 14:00:00 34.4 13 Sur 22 Sudeste 0 -- -- 32
2019-07-20 13:00:00 33.1 13 Sudeste 21 Sudeste 0 -- -- 35
2019-07-20 12:00:00 31.2 9 Sudeste 18 Sudeste 0 -- -- 42
2019-07-20 11:00:00 28.3 9 Sudeste 13 Sudeste 0 -- -- 47
2019-07-20 10:00:00 26.9 9 Sudeste 11 Sudeste 0 -- -- 45
2019-07-20 09:00:00 25 5 Noroeste 8 Noroeste 0 -- -- 48
2019-07-20 08:00:00 21.2 5 Oeste 7 Oeste 0 -- -- 56
2019-07-20 07:00:00 22.1 4 Noroeste 9 Oeste 0 -- -- 52
2019-07-20 06:00:00 23.2 2 Nordeste 6 Oeste 0 -- -- 50
2019-07-20 05:00:00 23.9 3 Sudeste 8 Sudeste 0 -- -- 46
2019-07-20 04:00:00 25.9 4 Nordeste 14 Norte 0 -- -- 40
2019-07-20 03:00:00 27.1 5 Noroeste 14 Noroeste 0 -- -- 41
2019-07-20 02:00:00 27.8 10 Noroeste 16 Norte 0 -- -- 43
2019-07-20 01:00:00 27.2 6 Noroeste 10 Noroeste 0 -- -- 43
2019-07-20 00:00:00 30 10 Noroeste 28 Norte 0 -- -- 37
2019-07-19 23:00:00 31.4 16 Noroeste 26 Noroeste 0 -- -- 34
2019-07-19 22:00:00 33.2 15 Oeste 28 Oeste 0 -- -- 30
2019-07-19 21:00:00 36.2 12 Oeste 23 Oeste 0 -- -- 22
2019-07-19 20:00:00 37.5 12 Oeste 26 Oeste 0 -- -- 22
2019-07-19 19:00:00 38.2 10 Oeste 30 Oeste 0 -- -- 22
2019-07-19 18:00:00 38.3 9 Oeste 28 Sudoeste 0 -- -- 22
2019-07-19 17:00:00 38.4 11 Sudoeste 28 Sudeste 0 -- -- 23
2019-07-19 16:00:00 37.8 10 Sudoeste 23 Sur 0 -- -- 25
2019-07-19 15:00:00 37.3 13 Sudeste 23 Sudeste 0 -- -- 26
2019-07-19 14:00:00 36.5 12 Sudeste 22 Sudeste 0 -- -- 29
2019-07-19 13:00:00 34.4 11 Sudeste 21 Sudeste 0 -- -- 32
2019-07-19 12:00:00 32.4 11 Sudeste 19 Este 0 -- -- 35
2019-07-19 11:00:00 31.7 11 Este 19 Este 0 -- -- 35
2019-07-19 10:00:00 29.2 7 Sudeste 15 Este 0 -- -- 38
2019-07-19 09:00:00 25.4 0 Calma 4 Sudeste 0 -- -- 44
2019-07-19 08:00:00 21.2 3 Norte 6 Norte 0 -- -- 51
2019-07-19 07:00:00 20.2 4 Noroeste 5 Norte 0 -- -- 52
2019-07-19 06:00:00 21.1 3 Noroeste 5 Noroeste 0 -- -- 49
2019-07-19 05:00:00 22.6 2 Sur 8 Sur 0 -- -- 46
2019-07-19 04:00:00 24.6 4 Sur 8 Sudeste 0 -- -- 38
2019-07-19 03:00:00 25.9 3 Norte 10 Noroeste 0 -- -- 37
2019-07-19 02:00:00 27.9 7 Norte 16 Norte 0 -- -- 32
2019-07-19 01:00:00 29.7 10 Norte 22 Norte 0 -- -- 30
2019-07-19 00:00:00 30.2 12 Norte 20 Norte 0 -- -- 32